Share

Dara'a, Syria

Marka International (OJAM) Elev 2556 ft | 31.97 °N, 35.99 °E | Change Station

Current weather conditions updated 30 minutes ago

Haze
Haze
64 °F
Feels Like 64 °F
N
9
Wind Variable Wind from WSW
Sunrise 6:03 AM
Sunset 7:07 PM
Moon Waning Gibbous

Today is forecast to be Cooler than yesterday.

Pressure 29.98 in
Visibility 3.1 miles
Clouds
Dew Point 37 °F
Humidity 37%
Rainfall 0.00 in
Snow Depth Not available.
UV Not available.
Pollen Not available.
Air Quality Not available.
Flu Activity Not available.
METAR OJAM 180700Z 25008KT 5000 HZ NSC 18/03 Q1015 NOSIG

More Conditions Fewer Conditions

Pressure 29.98 in
Visibility 3.1 miles
Clouds
Dew Point 37 °F
Humidity 37%
Rainfall 0.00 in
Snow Depth Not available.
UV Not available.
Pollen Not available.
Air Quality Not available.
Flu Activity Not available.
METAR OJAM 180700Z 25008KT 5000 HZ NSC 18/03 Q1015 NOSIG

More Conditions Fewer Conditions

10-Day Forecast

Almanac

Astronomy

Apr. 18, 2014 Rise Set
Actual Time 6:03 AM EEST 7:07 PM EEST
Civil Twilight 5:37 AM EEST 7:32 PM EEST
Nautical Twilight 5:07 AM EEST 8:03 PM EEST
Astronomical Twilight 4:36 AM EEST 8:34 PM EEST
Moon 10:24 PM EEST 8:13 AM EEST
Length of Visible Light 13h 55m
Length of Day
13h 04m
Tomorrow will be 1m 52s longer.
Waning Gibbous, 90% of the Moon is Illuminated
Today
Waning Gibbous
Apr 22
Last Quarter
Apr 29
New
May 6
First Quarter
May 14
Full

Yesterday's Extremes

Country Highs Country Lows

Community

  • SUNRISE THROUGH THE TREES.
    SUNRISE THROUGH THE TREES.
  • Dog Wood Blossoms
    Dog Wood Blossoms
  • Morning Light
    Morning Light
  • New Day
    New Day
  • Lake Michigan Sunrise
    Lake Michigan Sunrise

WunderPhotos

Upload Photos

1,702,279 photos uploaded!

WunderBlogs® & News

Nearby

Snow Depth

Not available.

Coastal Water Temperatures

Place Temperature
No Stations Reporting

Earthquake Activity

City Distance Mag. Time & Date
No recent earthquake activity has been reported nearby.
Minimum magnitude displayed is 2.5.

Nearby Weather Stations

There are no personal weather stations in this area.

What do you think?

We're not finished. Please let us know what you like, what you don't like, and what you are still missing.